sensor_id;sensor_type;location;lat;lon;timestamp;pressure;altitude;pressure_sealevel;temperature;humidity
10482;BME280;5288;42.334;23.876;2023-01-05T00:01:27;56436.78;;;-140.56;72.18
10482;BME280;5288;42.334;23.876;2023-01-05T00:03:54;56409.13;;;-140.56;71.82
10482;BME280;5288;42.334;23.876;2023-01-05T00:06:23;56438.78;;;-140.56;72.21
10482;BME280;5288;42.334;23.876;2023-01-05T00:08:50;56420.97;;;-140.56;72.29
10482;BME280;5288;42.334;23.876;2023-01-05T00:11:19;56415.06;;;-140.56;72.69
10482;BME280;5288;42.334;23.876;2023-01-05T00:14:04;56409.13;;;-140.56;72.73
10482;BME280;5288;42.334;23.876;2023-01-05T00:16:49;56444.69;;;-140.56;72.88
10482;BME280;5288;42.334;23.876;2023-01-05T00:19:33;56417.03;;;-140.56;72.97
10482;BME280;5288;42.334;23.876;2023-01-05T00:22:21;56438.78;;;-140.56;73.93
10482;BME280;5288;42.334;23.876;2023-01-05T00:25:00;56458.53;;;-140.56;74.02
10482;BME280;5288;42.334;23.876;2023-01-05T00:27:27;56434.81;;;-140.56;73.95
10482;BME280;5288;42.334;23.876;2023-01-05T00:29:54;56450.63;;;-140.56;74.21
10482;BME280;5288;42.334;23.876;2023-01-05T00:32:22;56397.25;;;-140.56;74.91
10482;BME280;5288;42.334;23.876;2023-01-05T00:34:49;56442.72;;;-140.56;74.86
10482;BME280;5288;42.334;23.876;2023-01-05T00:37:20;56438.78;;;-140.56;74.57
10482;BME280;5288;42.334;23.876;2023-01-05T00:39:47;56434.81;;;-140.56;74.56
10482;BME280;5288;42.334;23.876;2023-01-05T00:42:14;56440.75;;;-140.56;74.40
10482;BME280;5288;42.334;23.876;2023-01-05T00:44:41;56399.25;;;-140.56;74.22
10482;BME280;5288;42.334;23.876;2023-01-05T00:47:08;56438.78;;;-140.56;74.13
10482;BME280;5288;42.334;23.876;2023-01-05T00:49:35;56389.34;;;-140.56;74.12
10482;BME280;5288;42.334;23.876;2023-01-05T00:52:02;56432.84;;;-140.56;73.53
10482;BME280;5288;42.334;23.876;2023-01-05T00:54:31;56409.13;;;-140.56;73.71
10482;BME280;5288;42.334;23.876;2023-01-05T00:56:58;56389.34;;;-140.56;74.12
10482;BME280;5288;42.334;23.876;2023-01-05T00:59:24;56434.81;;;-140.56;73.67
10482;BME280;5288;42.334;23.876;2023-01-05T01:01:52;56428.88;;;-140.56;73.59
10482;BME280;5288;42.334;23.876;2023-01-05T01:04:20;56422.97;;;-140.56;74.10
10482;BME280;5288;42.334;23.876;2023-01-05T01:06:47;56420.97;;;-140.56;74.07
10482;BME280;5288;42.334;23.876;2023-01-05T01:09:14;56417.03;;;-140.56;73.16
10482;BME280;5288;42.334;23.876;2023-01-05T01:11:43;56409.13;;;-140.56;73.61
10482;BME280;5288;42.334;23.876;2023-01-05T01:14:11;56430.88;;;-140.56;73.16
10482;BME280;5288;42.334;23.876;2023-01-05T01:16:39;56409.13;;;-140.56;72.85
10482;BME280;5288;42.334;23.876;2023-01-05T01:19:06;56391.34;;;-140.56;72.18
10482;BME280;5288;42.334;23.876;2023-01-05T01:21:33;56420.97;;;-140.56;72.10
10482;BME280;5288;42.334;23.876;2023-01-05T01:24:00;56430.88;;;-140.56;72.00
10482;BME280;5288;42.334;23.876;2023-01-05T01:26:27;56403.19;;;-140.56;72.16
10482;BME280;5288;42.334;23.876;2023-01-05T01:28:55;56409.13;;;-140.56;72.22
10482;BME280;5288;42.334;23.876;2023-01-05T01:31:22;56446.69;;;-140.56;71.43
10482;BME280;5288;42.334;23.876;2023-01-05T01:33:49;56424.94;;;-140.56;71.50
10482;BME280;5288;42.334;23.876;2023-01-05T01:36:16;56409.13;;;-140.56;71.16
10482;BME280;5288;42.334;23.876;2023-01-05T01:38:43;56432.84;;;-140.56;71.23
10482;BME280;5288;42.334;23.876;2023-01-05T01:41:11;56426.91;;;-140.56;70.66
10482;BME280;5288;42.334;23.876;2023-01-05T01:43:46;56420.97;;;-140.56;70.57
10482;BME280;5288;42.334;23.876;2023-01-05T01:46:15;56401.22;;;-140.56;70.68
10482;BME280;5288;42.334;23.876;2023-01-05T01:48:45;56405.16;;;-140.56;71.08
10482;BME280;5288;42.334;23.876;2023-01-05T01:51:16;56419.00;;;-140.56;71.22
10482;BME280;5288;42.334;23.876;2023-01-05T01:53:49;56440.75;;;-140.56;71.23
10482;BME280;5288;42.334;23.876;2023-01-05T01:56:20;56417.03;;;-140.56;71.17
10482;BME280;5288;42.334;23.876;2023-01-05T01:58:48;56417.03;;;-140.56;70.87
10482;BME280;5288;42.334;23.876;2023-01-05T02:01:17;56417.03;;;-140.56;70.56
10482;BME280;5288;42.334;23.876;2023-01-05T02:03:45;56448.66;;;-140.56;70.97
10482;BME280;5288;42.334;23.876;2023-01-05T02:06:12;56409.13;;;-140.56;70.78
10482;BME280;5288;42.334;23.876;2023-01-05T02:08:39;56436.78;;;-140.56;71.83
10482;BME280;5288;42.334;23.876;2023-01-05T02:11:20;56417.03;;;-140.56;72.05
10482;BME280;5288;42.334;23.876;2023-01-05T02:13:57;56428.88;;;-140.56;72.09
10482;BME280;5288;42.334;23.876;2023-01-05T02:16:34;56393.31;;;-140.56;71.45
10482;BME280;5288;42.334;23.876;2023-01-05T02:19:37;56407.16;;;-140.56;71.25
10482;BME280;5288;42.334;23.876;2023-01-05T02:22:26;56436.78;;;-140.56;71.23
10482;BME280;5288;42.334;23.876;2023-01-05T02:25:14;56417.03;;;-140.56;71.48
10482;BME280;5288;42.334;23.876;2023-01-05T02:27:57;56422.97;;;-140.56;72.48
10482;BME280;5288;42.334;23.876;2023-01-05T02:30:52;56434.81;;;-140.56;72.50
10482;BME280;5288;42.334;23.876;2023-01-05T02:33:28;56415.06;;;-140.56;72.92
10482;BME280;5288;42.334;23.876;2023-01-05T02:36:03;56434.81;;;-140.56;72.60
10482;BME280;5288;42.334;23.876;2023-01-05T02:38:37;56405.16;;;-140.56;72.70
10482;BME280;5288;42.334;23.876;2023-01-05T02:41:12;56428.88;;;-140.56;72.69
10482;BME280;5288;42.334;23.876;2023-01-05T02:43:43;56417.03;;;-140.56;72.37
10482;BME280;5288;42.334;23.876;2023-01-05T02:46:12;56409.13;;;-140.56;72.31
10482;BME280;5288;42.334;23.876;2023-01-05T02:48:41;56426.91;;;-140.56;71.96
10482;BME280;5288;42.334;23.876;2023-01-05T02:51:13;56377.50;;;-140.56;72.13
10482;BME280;5288;42.334;23.876;2023-01-05T02:53:45;56434.81;;;-140.56;71.91
10482;BME280;5288;42.334;23.876;2023-01-05T02:56:17;56422.97;;;-140.56;71.75
10482;BME280;5288;42.334;23.876;2023-01-05T02:58:49;56436.78;;;-140.56;72.08
10482;BME280;5288;42.334;23.876;2023-01-05T03:01:23;56391.34;;;-140.56;72.18
10482;BME280;5288;42.334;23.876;2023-01-05T03:03:53;56405.16;;;-140.56;72.75
10482;BME280;5288;42.334;23.876;2023-01-05T03:06:26;56436.78;;;-140.56;72.38
10482;BME280;5288;42.334;23.876;2023-01-05T03:08:56;56409.13;;;-140.56;72.71
10482;BME280;5288;42.334;23.876;2023-01-05T03:11:32;56417.03;;;-140.56;73.15
10482;BME280;5288;42.334;23.876;2023-01-05T03:14:22;56401.22;;;-140.56;73.08
10482;BME280;5288;42.334;23.876;2023-01-05T03:16:53;56424.94;;;-140.56;73.06
10482;BME280;5288;42.334;23.876;2023-01-05T03:19:23;56413.06;;;-140.56;73.13
10482;BME280;5288;42.334;23.876;2023-01-05T03:22:08;56415.06;;;-140.56;73.86
10482;BME280;5288;42.334;23.876;2023-01-05T03:24:55;56444.69;;;-140.56;73.88
10482;BME280;5288;42.334;23.876;2023-01-05T03:27:40;56432.84;;;-140.56;73.77
10482;BME280;5288;42.334;23.876;2023-01-05T03:30:29;56448.66;;;-140.56;73.60
10482;BME280;5288;42.334;23.876;2023-01-05T03:33:22;56442.72;;;-140.56;74.30
10482;BME280;5288;42.334;23.876;2023-01-05T03:36:11;56403.19;;;-140.56;74.04
10482;BME280;5288;42.334;23.876;2023-01-05T03:38:41;56420.97;;;-140.56;74.03
10482;BME280;5288;42.334;23.876;2023-01-05T03:41:11;56424.94;;;-140.56;73.97
10482;BME280;5288;42.334;23.876;2023-01-05T03:43:41;56426.91;;;-140.56;74.01
10482;BME280;5288;42.334;23.876;2023-01-05T03:46:10;56417.03;;;-140.56;73.48
10482;BME280;5288;42.334;23.876;2023-01-05T03:48:39;56413.06;;;-140.56;73.18
10482;BME280;5288;42.334;23.876;2023-01-05T03:51:06;56428.88;;;-140.56;73.69
10482;BME280;5288;42.334;23.876;2023-01-05T03:53:33;56420.97;;;-140.56;73.07
10482;BME280;5288;42.334;23.876;2023-01-05T03:56:00;56434.81;;;-140.56;73.15
10482;BME280;5288;42.334;23.876;2023-01-05T03:58:27;56448.66;;;-140.56;73.83
10482;BME280;5288;42.334;23.876;2023-01-05T04:00:54;56448.66;;;-140.56;73.94
10482;BME280;5288;42.334;23.876;2023-01-05T04:03:21;56428.88;;;-140.56;73.77
10482;BME280;5288;42.334;23.876;2023-01-05T04:05:50;56411.09;;;-140.56;73.34
10482;BME280;5288;42.334;23.876;2023-01-05T04:08:16;56438.78;;;-140.56;73.54
10482;BME280;5288;42.334;23.876;2023-01-05T04:10:43;56405.16;;;-140.56;73.38
10482;BME280;5288;42.334;23.876;2023-01-05T04:13:10;56440.75;;;-140.56;72.63
10482;BME280;5288;42.334;23.876;2023-01-05T04:15:38;56415.06;;;-140.56;72.35
10482;BME280;5288;42.334;23.876;2023-01-05T04:18:06;56409.13;;;-140.56;72.38
10482;BME280;5288;42.334;23.876;2023-01-05T04:20:32;56420.97;;;-140.56;72.73
10482;BME280;5288;42.334;23.876;2023-01-05T04:23:01;56420.97;;;-140.56;73.21
10482;BME280;5288;42.334;23.876;2023-01-05T04:25:28;56430.88;;;-140.56;73.85
10482;BME280;5288;42.334;23.876;2023-01-05T04:27:55;56448.66;;;-140.56;73.90
10482;BME280;5288;42.334;23.876;2023-01-05T04:30:22;56456.56;;;-140.56;73.08
10482;BME280;5288;42.334;23.876;2023-01-05T04:32:49;56426.91;;;-140.56;72.90
10482;BME280;5288;42.334;23.876;2023-01-05T04:35:16;56438.78;;;-140.56;72.24
10482;BME280;5288;42.334;23.876;2023-01-05T04:37:42;56401.22;;;-140.56;72.26
10482;BME280;5288;42.334;23.876;2023-01-05T04:40:12;56426.91;;;-140.56;72.18
10482;BME280;5288;42.334;23.876;2023-01-05T04:42:39;56458.53;;;-140.56;72.14
10482;BME280;5288;42.334;23.876;2023-01-05T04:45:06;56395.28;;;-140.56;72.19
10482;BME280;5288;42.334;23.876;2023-01-05T04:47:34;56442.72;;;-140.56;72.41
10482;BME280;5288;42.334;23.876;2023-01-05T04:50:01;56401.22;;;-140.56;72.79
10482;BME280;5288;42.334;23.876;2023-01-05T04:52:28;56436.78;;;-140.56;72.54
10482;BME280;5288;42.334;23.876;2023-01-05T04:54:55;56430.88;;;-140.56;72.44
10482;BME280;5288;42.334;23.876;2023-01-05T04:57:23;56442.72;;;-140.56;72.07
10482;BME280;5288;42.334;23.876;2023-01-05T04:59:50;56417.03;;;-140.56;72.42
10482;BME280;5288;42.334;23.876;2023-01-05T05:02:17;56438.78;;;-140.56;71.82
10482;BME280;5288;42.334;23.876;2023-01-05T05:04:44;56430.88;;;-140.56;72.23
10482;BME280;5288;42.334;23.876;2023-01-05T05:07:12;56442.72;;;-140.56;72.17
10482;BME280;5288;42.334;23.876;2023-01-05T05:09:39;56405.16;;;-140.56;72.54
10482;BME280;5288;42.334;23.876;2023-01-05T05:12:06;56426.91;;;-140.56;72.41
10482;BME280;5288;42.334;23.876;2023-01-05T05:14:34;56434.81;;;-140.56;72.33
10482;BME280;5288;42.334;23.876;2023-01-05T05:17:01;56428.88;;;-140.56;71.86
10482;BME280;5288;42.334;23.876;2023-01-05T05:19:28;56428.88;;;-140.56;72.30
10482;BME280;5288;42.334;23.876;2023-01-05T05:21:55;56417.03;;;-140.56;72.93
10482;BME280;5288;42.334;23.876;2023-01-05T05:24:22;56409.13;;;-140.56;72.95
10482;BME280;5288;42.334;23.876;2023-01-05T05:26:49;56405.16;;;-140.56;73.85
10482;BME280;5288;42.334;23.876;2023-01-05T05:29:16;56466.44;;;-140.56;72.78
10482;BME280;5288;42.334;23.876;2023-01-05T05:31:45;56440.75;;;-140.56;72.50
10482;BME280;5288;42.334;23.876;2023-01-05T05:34:12;56424.94;;;-140.56;72.53
10482;BME280;5288;42.334;23.876;2023-01-05T05:36:39;56403.19;;;-140.56;72.31
10482;BME280;5288;42.334;23.876;2023-01-05T05:39:06;56436.78;;;-140.56;72.41
10482;BME280;5288;42.334;23.876;2023-01-05T05:41:33;56409.13;;;-140.56;73.26
10482;BME280;5288;42.334;23.876;2023-01-05T05:43:59;56454.59;;;-140.56;73.10
10482;BME280;5288;42.334;23.876;2023-01-05T05:46:27;56464.47;;;-140.56;72.49
10482;BME280;5288;42.334;23.876;2023-01-05T05:48:56;56417.03;;;-140.56;72.47
10482;BME280;5288;42.334;23.876;2023-01-05T05:51:24;56440.75;;;-140.56;72.73
10482;BME280;5288;42.334;23.876;2023-01-05T05:54:00;56422.97;;;-140.56;72.73
10482;BME280;5288;42.334;23.876;2023-01-05T05:56:34;56422.97;;;-140.56;72.13
10482;BME280;5288;42.334;23.876;2023-01-05T05:59:01;56434.81;;;-140.56;71.60
10482;BME280;5288;42.334;23.876;2023-01-05T06:01:28;56448.66;;;-140.56;71.85
10482;BME280;5288;42.334;23.876;2023-01-05T06:03:57;56428.88;;;-140.56;72.08
10482;BME280;5288;42.334;23.876;2023-01-05T06:06:24;56434.81;;;-140.56;71.78
10482;BME280;5288;42.334;23.876;2023-01-05T06:08:51;56424.94;;;-140.56;71.60
10482;BME280;5288;42.334;23.876;2023-01-05T06:11:18;56444.69;;;-140.56;71.46
10482;BME280;5288;42.334;23.876;2023-01-05T06:13:44;56413.06;;;-140.56;71.58
10482;BME280;5288;42.334;23.876;2023-01-05T06:16:13;56405.16;;;-140.56;71.48
10482;BME280;5288;42.334;23.876;2023-01-05T06:18:40;56415.06;;;-140.56;71.98
10482;BME280;5288;42.334;23.876;2023-01-05T06:21:08;56428.88;;;-140.56;72.90
10482;BME280;5288;42.334;23.876;2023-01-05T06:23:35;56397.25;;;-140.56;73.39
10482;BME280;5288;42.334;23.876;2023-01-05T06:26:03;56448.66;;;-140.56;73.44
10482;BME280;5288;42.334;23.876;2023-01-05T06:28:30;56420.97;;;-140.56;73.25
10482;BME280;5288;42.334;23.876;2023-01-05T06:30:56;56432.84;;;-140.56;73.51
10482;BME280;5288;42.334;23.876;2023-01-05T06:33:23;56442.72;;;-140.56;73.64
10482;BME280;5288;42.334;23.876;2023-01-05T06:35:50;56432.84;;;-140.56;73.71
10482;BME280;5288;42.334;23.876;2023-01-05T06:38:20;56454.59;;;-140.56;73.53
10482;BME280;5288;42.334;23.876;2023-01-05T06:40:48;56424.94;;;-140.56;73.17
10482;BME280;5288;42.334;23.876;2023-01-05T06:43:15;56436.78;;;-140.56;72.75
10482;BME280;5288;42.334;23.876;2023-01-05T06:45:43;56444.69;;;-140.56;72.78
10482;BME280;5288;42.334;23.876;2023-01-05T06:48:10;56454.59;;;-140.56;72.31
10482;BME280;5288;42.334;23.876;2023-01-05T06:50:37;56482.25;;;-140.56;71.91
10482;BME280;5288;42.334;23.876;2023-01-05T06:53:04;56415.06;;;-140.56;71.56
10482;BME280;5288;42.334;23.876;2023-01-05T06:55:32;56434.81;;;-140.56;71.89
10482;BME280;5288;42.334;23.876;2023-01-05T06:57:59;56438.78;;;-140.56;71.96
10482;BME280;5288;42.334;23.876;2023-01-05T07:00:27;56411.09;;;-140.56;71.66
10482;BME280;5288;42.334;23.876;2023-01-05T07:02:54;56440.75;;;-140.56;71.63
10482;BME280;5288;42.334;23.876;2023-01-05T07:05:21;56420.97;;;-140.56;71.24
10482;BME280;5288;42.334;23.876;2023-01-05T07:07:49;56432.84;;;-140.56;70.99
10482;BME280;5288;42.334;23.876;2023-01-05T07:10:16;56419.00;;;-140.56;70.84
10482;BME280;5288;42.334;23.876;2023-01-05T07:12:44;56432.84;;;-140.56;70.90
10482;BME280;5288;42.334;23.876;2023-01-05T07:15:11;56434.81;;;-140.56;72.50
10482;BME280;5288;42.334;23.876;2023-01-05T07:17:38;56446.69;;;-140.56;71.66
10482;BME280;5288;42.334;23.876;2023-01-05T07:20:06;56420.97;;;-140.56;71.27
10482;BME280;5288;42.334;23.876;2023-01-05T07:22:36;56458.53;;;-140.56;71.34
10482;BME280;5288;42.334;23.876;2023-01-05T07:25:03;56424.94;;;-140.56;71.19
10482;BME280;5288;42.334;23.876;2023-01-05T07:27:30;56464.47;;;-140.56;70.58
10482;BME280;5288;42.334;23.876;2023-01-05T07:29:59;56434.81;;;-140.56;70.73
10482;BME280;5288;42.334;23.876;2023-01-05T07:32:26;56417.03;;;-140.56;70.58
10482;BME280;5288;42.334;23.876;2023-01-05T07:34:53;56420.97;;;-140.56;70.76
10482;BME280;5288;42.334;23.876;2023-01-05T07:37:20;56415.06;;;-140.56;71.13
10482;BME280;5288;42.334;23.876;2023-01-05T07:39:47;56444.69;;;-140.56;71.13
10482;BME280;5288;42.334;23.876;2023-01-05T07:42:14;56436.78;;;-140.56;71.99
10482;BME280;5288;42.334;23.876;2023-01-05T07:44:41;56456.56;;;-140.56;71.60
10482;BME280;5288;42.334;23.876;2023-01-05T07:47:11;56444.69;;;-140.56;71.26
10482;BME280;5288;42.334;23.876;2023-01-05T07:49:38;56426.91;;;-140.56;71.75
10482;BME280;5288;42.334;23.876;2023-01-05T07:52:05;56409.13;;;-140.56;71.65
10482;BME280;5288;42.334;23.876;2023-01-05T07:54:32;56440.75;;;-140.56;71.69
10482;BME280;5288;42.334;23.876;2023-01-05T07:56:59;56466.44;;;-140.56;72.20
10482;BME280;5288;42.334;23.876;2023-01-05T07:59:26;56460.50;;;-140.56;72.89
10482;BME280;5288;42.334;23.876;2023-01-05T08:01:53;56444.69;;;-140.56;72.88
10482;BME280;5288;42.334;23.876;2023-01-05T08:04:22;56417.03;;;-140.56;73.34
10482;BME280;5288;42.334;23.876;2023-01-05T08:06:49;56434.81;;;-140.56;72.80
10482;BME280;5288;42.334;23.876;2023-01-05T08:09:17;56430.88;;;-140.56;72.41
10482;BME280;5288;42.334;23.876;2023-01-05T08:12:01;56460.50;;;-140.56;72.21
10482;BME280;5288;42.334;23.876;2023-01-05T08:14:28;56448.66;;;-140.56;71.48
10482;BME280;5288;42.334;23.876;2023-01-05T08:16:55;56434.81;;;-140.56;71.11
10482;BME280;5288;42.334;23.876;2023-01-05T08:19:23;56436.78;;;-140.56;70.55
10482;BME280;5288;42.334;23.876;2023-01-05T08:21:55;56401.22;;;-140.56;69.86
10482;BME280;5288;42.334;23.876;2023-01-05T08:24:22;56424.94;;;-140.56;68.79
10482;BME280;5288;42.334;23.876;2023-01-05T08:26:49;56432.84;;;-140.56;68.55
10482;BME280;5288;42.334;23.876;2023-01-05T08:29:16;56466.44;;;-140.56;68.78
10482;BME280;5288;42.334;23.876;2023-01-05T08:31:43;56401.22;;;-140.56;67.88
10482;BME280;5288;42.334;23.876;2023-01-05T08:34:10;56426.91;;;-140.56;67.73
10482;BME280;5288;42.334;23.876;2023-01-05T08:36:38;56415.06;;;-140.56;67.35
10482;BME280;5288;42.334;23.876;2023-01-05T08:39:06;56397.25;;;-140.56;66.87
10482;BME280;5288;42.334;23.876;2023-01-05T08:41:36;56405.16;;;-140.56;66.84
10482;BME280;5288;42.334;23.876;2023-01-05T08:44:06;56405.16;;;-140.56;65.78
10482;BME280;5288;42.334;23.876;2023-01-05T08:46:34;56397.25;;;-140.56;64.87
10482;BME280;5288;42.334;23.876;2023-01-05T08:49:03;56389.34;;;-140.56;63.95
10482;BME280;5288;42.334;23.876;2023-01-05T08:51:30;56405.16;;;-140.56;63.41
10482;BME280;5288;42.334;23.876;2023-01-05T08:54:00;56419.00;;;-140.56;62.82
10482;BME280;5288;42.334;23.876;2023-01-05T08:56:27;56413.06;;;-140.56;62.53
10482;BME280;5288;42.334;23.876;2023-01-05T08:58:55;56375.53;;;-140.56;62.46
10482;BME280;5288;42.334;23.876;2023-01-05T09:01:23;56357.75;;;-140.56;61.61
10482;BME280;5288;42.334;23.876;2023-01-05T09:03:50;56389.34;;;-140.56;60.80
10482;BME280;5288;42.334;23.876;2023-01-05T09:06:17;56345.88;;;-140.56;60.80
10482;BME280;5288;42.334;23.876;2023-01-05T09:08:45;56369.59;;;-140.56;60.56
10482;BME280;5288;42.334;23.876;2023-01-05T09:11:16;56383.44;;;-140.56;60.42
10482;BME280;5288;42.334;23.876;2023-01-05T09:13:45;56383.44;;;-140.56;59.97
10482;BME280;5288;42.334;23.876;2023-01-05T09:16:14;56357.75;;;-140.56;58.44
10482;BME280;5288;42.334;23.876;2023-01-05T09:18:43;56343.91;;;-140.56;58.54
10482;BME280;5288;42.334;23.876;2023-01-05T09:21:10;56369.59;;;-140.56;58.46
10482;BME280;5288;42.334;23.876;2023-01-05T09:23:38;56341.94;;;-140.56;58.34
10482;BME280;5288;42.334;23.876;2023-01-05T09:26:08;56332.03;;;-140.56;57.94
10482;BME280;5288;42.334;23.876;2023-01-05T09:28:36;56397.25;;;-140.56;57.24
10482;BME280;5288;42.334;23.876;2023-01-05T09:31:07;56345.88;;;-140.56;57.81
10482;BME280;5288;42.334;23.876;2023-01-05T09:33:35;56316.25;;;-140.56;56.31
10482;BME280;5288;42.334;23.876;2023-01-05T09:36:02;56359.72;;;-140.56;55.88
10482;BME280;5288;42.334;23.876;2023-01-05T09:38:29;56312.28;;;-140.56;55.57
10482;BME280;5288;42.334;23.876;2023-01-05T09:41:01;56369.59;;;-140.56;55.29
10482;BME280;5288;42.334;23.876;2023-01-05T09:43:33;56334.03;;;-140.56;55.81
10482;BME280;5288;42.334;23.876;2023-01-05T09:46:04;56337.97;;;-140.56;54.23
10482;BME280;5288;42.334;23.876;2023-01-05T09:48:37;56316.25;;;-140.56;54.04
10482;BME280;5288;42.334;23.876;2023-01-05T09:51:06;56334.03;;;-140.56;53.59
10482;BME280;5288;42.334;23.876;2023-01-05T09:53:34;56314.25;;;-140.56;52.97
10482;BME280;5288;42.334;23.876;2023-01-05T09:56:02;56300.44;;;-140.56;51.75
10482;BME280;5288;42.334;23.876;2023-01-05T09:58:34;56272.75;;;-140.56;50.83
10482;BME280;5288;42.334;23.876;2023-01-05T10:01:10;56280.66;;;-140.56;50.30
10482;BME280;5288;42.334;23.876;2023-01-05T10:03:42;56270.78;;;-140.56;50.07
10482;BME280;5288;42.334;23.876;2023-01-05T10:06:12;56310.31;;;-140.56;49.18
10482;BME280;5288;42.334;23.876;2023-01-05T10:08:42;56274.72;;;-140.56;49.82
10482;BME280;5288;42.334;23.876;2023-01-05T10:11:13;56284.63;;;-140.56;48.98
10482;BME280;5288;42.334;23.876;2023-01-05T10:14:04;56290.53;;;-140.56;50.02
10482;BME280;5288;42.334;23.876;2023-01-05T10:16:33;56284.63;;;-140.56;48.76
10482;BME280;5288;42.334;23.876;2023-01-05T10:19:01;56266.81;;;-140.56;48.62
10482;BME280;5288;42.334;23.876;2023-01-05T10:21:35;56249.03;;;-140.56;47.46
10482;BME280;5288;42.334;23.876;2023-01-05T10:24:20;56272.75;;;-140.56;47.38
10482;BME280;5288;42.334;23.876;2023-01-05T10:26:55;56308.34;;;-140.56;48.77
10482;BME280;5288;42.334;23.876;2023-01-05T10:29:28;56286.59;;;-140.56;50.12
10482;BME280;5288;42.334;23.876;2023-01-05T10:32:10;56286.59;;;-140.56;50.91
10482;BME280;5288;42.334;23.876;2023-01-05T10:34:53;56276.72;;;-140.56;50.31
10482;BME280;5288;42.334;23.876;2023-01-05T10:40:36;56290.53;;;-140.56;51.46
10482;BME280;5288;42.334;23.876;2023-01-05T10:43:18;56294.50;;;-140.56;52.80
10482;BME280;5288;42.334;23.876;2023-01-05T10:45:48;56306.34;;;-140.56;52.71
10482;BME280;5288;42.334;23.876;2023-01-05T10:48:18;56316.25;;;-140.56;52.14
10482;BME280;5288;42.334;23.876;2023-01-05T10:50:51;56282.63;;;-140.56;51.14
10482;BME280;5288;42.334;23.876;2023-01-05T10:53:23;56314.25;;;-140.56;51.45
10482;BME280;5288;42.334;23.876;2023-01-05T10:55:57;56274.72;;;-140.56;50.92
10482;BME280;5288;42.334;23.876;2023-01-05T10:58:29;56231.25;;;-140.56;49.48
10482;BME280;5288;42.334;23.876;2023-01-05T11:00:59;56282.63;;;-140.56;49.82
10482;BME280;5288;42.334;23.876;2023-01-05T11:03:39;56256.94;;;-140.56;49.49
10482;BME280;5288;42.334;23.876;2023-01-05T11:06:08;56280.66;;;-140.56;49.57
10482;BME280;5288;42.334;23.876;2023-01-05T11:08:45;56266.81;;;-140.56;48.86
10482;BME280;5288;42.334;23.876;2023-01-05T11:11:20;56249.03;;;-140.56;48.25
10482;BME280;5288;42.334;23.876;2023-01-05T11:13:49;56253.00;;;-140.56;47.34
10482;BME280;5288;42.334;23.876;2023-01-05T11:16:20;56266.81;;;-140.56;46.37
10482;BME280;5288;42.334;23.876;2023-01-05T11:18:51;56239.16;;;-140.56;45.68
10482;BME280;5288;42.334;23.876;2023-01-05T11:21:20;56221.38;;;-140.56;44.82
10482;BME280;5288;42.334;23.876;2023-01-05T11:23:48;56209.50;;;-140.56;44.85
10482;BME280;5288;42.334;23.876;2023-01-05T11:26:28;56215.44;;;-140.56;43.81
10482;BME280;5288;42.334;23.876;2023-01-05T11:29:12;56256.94;;;-140.56;43.63
10482;BME280;5288;42.334;23.876;2023-01-05T11:31:44;56235.22;;;-140.56;42.10
10482;BME280;5288;42.334;23.876;2023-01-05T11:34:28;56219.41;;;-140.56;40.94
10482;BME280;5288;42.334;23.876;2023-01-05T11:36:58;56237.19;;;-140.56;41.93
10482;BME280;5288;42.334;23.876;2023-01-05T11:39:28;56221.38;;;-140.56;43.02
10482;BME280;5288;42.334;23.876;2023-01-05T11:42:10;56229.28;;;-140.56;43.24
10482;BME280;5288;42.334;23.876;2023-01-05T11:44:47;56217.41;;;-140.56;42.10
10482;BME280;5288;42.334;23.876;2023-01-05T11:47:22;56254.97;;;-140.56;42.51
10482;BME280;5288;42.334;23.876;2023-01-05T11:50:00;56229.28;;;-140.56;43.82
10482;BME280;5288;42.334;23.876;2023-01-05T11:52:33;56227.31;;;-140.56;42.54
10482;BME280;5288;42.334;23.876;2023-01-05T11:55:24;56207.53;;;-140.56;41.35
10482;BME280;5288;42.334;23.876;2023-01-05T11:57:59;56229.28;;;-140.56;41.40
10482;BME280;5288;42.334;23.876;2023-01-05T12:00:50;56241.13;;;-140.56;42.11
10482;BME280;5288;42.334;23.876;2023-01-05T12:03:42;56166.03;;;-140.56;42.41
10482;BME280;5288;42.334;23.876;2023-01-05T12:06:23;56217.41;;;-140.56;42.49
10482;BME280;5288;42.334;23.876;2023-01-05T12:09:01;56233.22;;;-140.56;42.38
10482;BME280;5288;42.334;23.876;2023-01-05T12:11:36;56221.38;;;-140.56;42.95
10482;BME280;5288;42.334;23.876;2023-01-05T12:14:19;56183.81;;;-140.56;43.10
10482;BME280;5288;42.334;23.876;2023-01-05T12:16:53;56227.31;;;-140.56;42.07
10482;BME280;5288;42.334;23.876;2023-01-05T12:19:35;56243.13;;;-140.56;42.63
10482;BME280;5288;42.334;23.876;2023-01-05T12:25:23;56254.97;;;-140.56;43.04
10482;BME280;5288;42.334;23.876;2023-01-05T12:28:20;56223.34;;;-140.56;42.98
10482;BME280;5288;42.334;23.876;2023-01-05T12:30:56;56189.75;;;-140.56;41.63
10482;BME280;5288;42.334;23.876;2023-01-05T12:33:50;56203.59;;;-140.56;41.04
10482;BME280;5288;42.334;23.876;2023-01-05T12:36:34;56201.63;;;-140.56;40.41
10482;BME280;5288;42.334;23.876;2023-01-05T12:39:28;56227.31;;;-140.56;41.12
10482;BME280;5288;42.334;23.876;2023-01-05T12:42:07;56209.50;;;-140.56;40.56
10482;BME280;5288;42.334;23.876;2023-01-05T12:45:02;56187.78;;;-140.56;39.58
10482;BME280;5288;42.334;23.876;2023-01-05T12:47:46;56171.97;;;-140.56;39.08
10482;BME280;5288;42.334;23.876;2023-01-05T12:50:22;56140.34;;;-140.56;39.29
10482;BME280;5288;42.334;23.876;2023-01-05T12:52:55;56171.97;;;-140.56;39.30
10482;BME280;5288;42.334;23.876;2023-01-05T12:55:26;56173.94;;;-140.56;39.18
10482;BME280;5288;42.334;23.876;2023-01-05T12:58:00;56221.38;;;-140.56;40.01
10482;BME280;5288;42.334;23.876;2023-01-05T13:00:33;56189.75;;;-140.56;39.60
10482;BME280;5288;42.334;23.876;2023-01-05T13:03:10;56189.75;;;-140.56;39.24
10482;BME280;5288;42.334;23.876;2023-01-05T13:05:44;56211.50;;;-140.56;39.54
10482;BME280;5288;42.334;23.876;2023-01-05T13:08:19;56229.28;;;-140.56;39.69